createdAt,value
2017-12-17T00:01:01.972Z,20.65
2017-12-17T00:03:29.479Z,21.80
2017-12-17T00:05:57.003Z,20.52
2017-12-17T00:08:25.308Z,23.40
2017-12-17T00:10:52.843Z,23.58
2017-12-17T00:13:21.161Z,21.02
2017-12-17T00:15:48.732Z,20.15
2017-12-17T00:18:16.234Z,19.83
2017-12-17T00:20:44.514Z,20.30
2017-12-17T00:23:12.829Z,20.55
2017-12-17T00:25:40.365Z,23.60
2017-12-17T00:28:08.630Z,20.70
2017-12-17T00:30:36.932Z,20.37
2017-12-17T00:33:04.443Z,20.25
2017-12-17T00:35:31.990Z,21.62
2017-12-17T00:37:59.491Z,21.50
2017-12-17T00:40:27.785Z,21.02
2017-12-17T00:42:55.289Z,24.75
2017-12-17T00:45:22.818Z,18.12
2017-12-17T00:47:50.334Z,19.52
2017-12-17T00:50:18.623Z,20.45
2017-12-17T00:52:46.923Z,20.15
2017-12-17T00:55:14.430Z,20.15
2017-12-17T00:57:41.953Z,17.05
2017-12-17T01:00:09.462Z,21.23
2017-12-17T01:02:36.987Z,19.10
2017-12-17T01:05:04.503Z,25.15
2017-12-17T01:07:32.021Z,21.42
2017-12-17T01:09:59.562Z,19.23
2017-12-17T01:12:27.078Z,19.65
2017-12-17T01:14:55.344Z,21.95
2017-12-17T01:17:23.630Z,21.52
2017-12-17T01:19:51.900Z,18.48
2017-12-17T01:22:20.198Z,20.17
2017-12-17T01:24:47.697Z,21.10
2017-12-17T01:27:15.215Z,20.02
2017-12-17T01:29:42.730Z,20.75
2017-12-17T01:32:10.226Z,20.40
2017-12-17T01:34:37.747Z,27.20
2017-12-17T01:37:05.258Z,22.83
2017-12-17T01:39:33.560Z,19.65
2017-12-17T01:42:01.059Z,19.85
2017-12-17T01:44:29.340Z,18.98
2017-12-17T01:46:57.602Z,22.23
2017-12-17T01:49:25.131Z,21.60
2017-12-17T01:51:52.670Z,20.12
2017-12-17T01:54:20.189Z,20.12
2017-12-17T01:56:47.710Z,17.98
2017-12-17T01:59:15.239Z,23.55
2017-12-17T02:01:42.744Z,21.02
2017-12-17T02:04:10.266Z,16.15
2017-12-17T02:06:37.781Z,16.85
2017-12-17T02:09:05.278Z,20.20
2017-12-17T02:11:32.795Z,19.37
2017-12-17T02:14:00.298Z,18.52
2017-12-17T02:16:27.810Z,16.85
2017-12-17T02:18:56.104Z,23.85
2017-12-17T02:21:24.393Z,21.95
2017-12-17T02:23:51.911Z,21.02
2017-12-17T02:26:19.438Z,20.02
2017-12-17T02:28:46.938Z,22.10
2017-12-17T02:31:14.464Z,16.30
2017-12-17T02:33:41.973Z,21.20
2017-12-17T02:36:09.485Z,17.83
2017-12-17T02:38:36.994Z,20.90
2017-12-17T02:41:05.283Z,17.65
2017-12-17T02:43:33.550Z,18.60
2017-12-17T02:46:01.103Z,15.48
2017-12-17T02:48:28.612Z,15.68
2017-12-17T02:50:56.181Z,20.02
2017-12-17T02:53:23.691Z,18.85
2017-12-17T02:55:51.978Z,16.55
2017-12-17T02:58:20.275Z,15.95
2017-12-17T03:00:47.776Z,16.42
2017-12-17T03:03:15.293Z,20.73
2017-12-17T03:05:42.806Z,17.85
2017-12-17T03:08:10.321Z,17.27
2017-12-17T03:10:37.832Z,16.90
2017-12-17T03:13:05.350Z,18.80
2017-12-17T03:15:32.895Z,16.80
2017-12-17T03:18:00.423Z,16.75
2017-12-17T03:20:28.685Z,14.75
2017-12-17T03:22:56.190Z,15.55
2017-12-17T03:25:23.707Z,15.27
2017-12-17T03:27:51.998Z,19.40
2017-12-17T03:30:19.543Z,18.05
2017-12-17T03:32:47.830Z,15.80
2017-12-17T03:35:16.160Z,16.17
2017-12-17T03:37:43.675Z,16.45
2017-12-17T03:40:11.939Z,15.02
2017-12-17T03:42:40.226Z,15.13
2017-12-17T03:45:08.519Z,14.02
2017-12-17T03:47:36.006Z,15.82
2017-12-17T03:50:03.528Z,18.92
2017-12-17T03:52:31.791Z,13.88
2017-12-17T03:55:00.108Z,15.70
2017-12-17T03:57:27.619Z,15.23
2017-12-17T03:59:55.143Z,17.00
2017-12-17T04:02:22.642Z,14.55
2017-12-17T04:04:50.935Z,14.85
2017-12-17T04:07:18.442Z,16.12
2017-12-17T04:09:45.974Z,14.50
2017-12-17T04:12:13.470Z,15.02
2017-12-17T04:14:40.983Z,18.98
2017-12-17T04:17:08.478Z,14.10
2017-12-17T04:19:35.992Z,17.00
2017-12-17T04:22:03.489Z,19.27
2017-12-17T04:24:31.050Z,16.42
2017-12-17T04:26:58.554Z,16.65
2017-12-17T04:29:26.818Z,16.62
2017-12-17T04:31:55.111Z,17.80
2017-12-17T04:34:23.383Z,17.10
2017-12-17T04:36:51.668Z,16.77
2017-12-17T04:39:19.939Z,16.52
2017-12-17T04:41:48.230Z,17.00
2017-12-17T04:44:15.718Z,14.90
2017-12-17T04:46:43.225Z,25.25
2017-12-17T04:49:11.499Z,17.83
2017-12-17T04:51:39.038Z,18.37
2017-12-17T04:54:06.548Z,18.92
2017-12-17T04:56:34.066Z,17.35
2017-12-17T04:59:01.571Z,22.27
2017-12-17T05:01:29.103Z,18.87
2017-12-17T05:03:57.375Z,18.10
2017-12-17T05:06:25.670Z,20.00
2017-12-17T05:08:53.166Z,20.10
2017-12-17T05:11:20.725Z,17.67
2017-12-17T05:13:48.294Z,17.65
2017-12-17T05:16:15.794Z,16.75
2017-12-17T05:18:44.078Z,15.27
2017-12-17T05:21:12.346Z,18.42
2017-12-17T05:23:40.643Z,18.33
2017-12-17T05:26:08.142Z,16.60
2017-12-17T05:28:35.664Z,17.85
2017-12-17T05:31:03.178Z,19.45
2017-12-17T05:33:30.706Z,20.02
2017-12-17T05:35:58.202Z,19.62
2017-12-17T05:38:25.719Z,17.33
2017-12-17T05:40:53.217Z,19.08
2017-12-17T05:43:20.735Z,16.30
2017-12-17T05:45:48.251Z,16.60
2017-12-17T05:48:16.539Z,20.60
2017-12-17T05:50:44.810Z,19.42
2017-12-17T05:53:13.130Z,18.73
2017-12-17T05:55:40.644Z,17.33
2017-12-17T05:58:08.911Z,17.08
2017-12-17T06:00:36.430Z,21.17
2017-12-17T06:03:03.966Z,16.87
2017-12-17T06:05:31.489Z,15.63
2017-12-17T06:07:58.998Z,17.73
2017-12-17T06:10:26.519Z,20.25
2017-12-17T06:12:54.017Z,16.58
2017-12-17T06:15:21.531Z,16.95
2017-12-17T06:17:49.831Z,21.05
2017-12-17T06:20:17.351Z,15.30
2017-12-17T06:22:44.886Z,20.85
2017-12-17T06:25:12.406Z,16.02
2017-12-17T06:27:39.915Z,20.17
2017-12-17T06:30:07.435Z,16.12
2017-12-17T06:32:34.952Z,13.50
2017-12-17T06:35:02.497Z,14.10
2017-12-17T06:37:29.999Z,14.18
2017-12-17T06:39:58.263Z,16.75
2017-12-17T06:42:26.575Z,16.55
2017-12-17T06:44:54.071Z,14.85
2017-12-17T06:47:21.610Z,18.85
2017-12-17T06:49:49.101Z,12.23
2017-12-17T06:52:16.612Z,17.92
2017-12-17T06:54:44.109Z,18.67
2017-12-17T06:57:11.630Z,16.58
2017-12-17T06:59:39.138Z,18.83
2017-12-17T07:02:06.675Z,15.68
2017-12-17T07:04:34.210Z,14.50
2017-12-17T07:07:01.738Z,13.62
2017-12-17T07:09:29.255Z,14.70
2017-12-17T07:11:56.810Z,12.77
2017-12-17T07:14:24.331Z,13.02
2017-12-17T07:16:51.826Z,12.88
2017-12-17T07:19:19.350Z,15.38
2017-12-17T07:21:46.843Z,16.87
2017-12-17T07:24:14.366Z,16.80
2017-12-17T07:26:41.863Z,14.90
2017-12-17T07:29:09.391Z,12.70
2017-12-17T07:31:37.668Z,12.65
2017-12-17T07:34:05.188Z,18.50
2017-12-17T07:36:32.690Z,12.02
2017-12-17T07:39:00.215Z,12.88
2017-12-17T07:41:27.709Z,12.30
2017-12-17T07:43:55.221Z,13.57
2017-12-17T07:46:22.746Z,10.63
2017-12-17T07:48:50.259Z,12.82
2017-12-17T07:51:18.539Z,17.80
2017-12-17T07:53:46.803Z,15.80
2017-12-17T07:56:14.330Z,11.15
2017-12-17T07:58:41.823Z,14.18
2017-12-17T08:01:10.121Z,13.32
2017-12-17T08:03:38.406Z,12.85
2017-12-17T08:06:05.958Z,11.90
2017-12-17T08:08:34.216Z,12.95
2017-12-17T08:11:02.524Z,13.18
2017-12-17T08:13:30.046Z,13.62
2017-12-17T08:15:57.561Z,12.43
2017-12-17T08:18:25.070Z,15.00
2017-12-17T08:20:53.353Z,15.73
2017-12-17T08:23:21.621Z,10.98
2017-12-17T08:25:49.943Z,13.95
2017-12-17T08:28:17.443Z,11.70
2017-12-17T08:30:44.967Z,11.95
2017-12-17T08:33:12.486Z,13.07
2017-12-17T08:35:40.758Z,13.43
2017-12-17T08:38:09.042Z,11.55
2017-12-17T08:40:37.298Z,11.52
2017-12-17T08:43:04.814Z,13.82
2017-12-17T08:45:32.307Z,12.30
2017-12-17T08:47:59.816Z,9.20
2017-12-17T08:50:27.321Z,8.88
2017-12-17T08:52:54.829Z,11.63
2017-12-17T08:55:22.336Z,8.07
2017-12-17T08:57:49.854Z,11.02
2017-12-17T09:00:17.345Z,12.10
2017-12-17T09:02:44.846Z,8.95
2017-12-17T09:05:12.356Z,9.98
2017-12-17T09:07:39.866Z,9.73
2017-12-17T09:10:08.154Z,11.55
2017-12-17T09:12:35.656Z,8.75
2017-12-17T09:15:03.166Z,7.00
2017-12-17T09:17:31.436Z,11.57
2017-12-17T09:19:59.734Z,8.10
2017-12-17T09:22:27.227Z,9.55
2017-12-17T09:24:54.763Z,7.05
2017-12-17T09:27:22.278Z,11.38
2017-12-17T09:29:49.809Z,7.72
2017-12-17T09:32:17.304Z,6.68
2017-12-17T09:34:44.824Z,8.40
2017-12-17T09:37:12.375Z,7.65
2017-12-17T09:39:39.867Z,9.70
2017-12-17T09:42:07.393Z,8.57
2017-12-17T09:44:34.898Z,7.45
2017-12-17T09:47:03.179Z,8.63
2017-12-17T09:49:31.456Z,7.78
2017-12-17T09:51:59.740Z,8.48
2017-12-17T09:54:28.022Z,7.55
2017-12-17T09:56:55.537Z,10.13
2017-12-17T09:59:23.034Z,6.03
2017-12-17T10:01:51.311Z,7.10
2017-12-17T10:04:19.578Z,10.23
2017-12-17T10:06:47.863Z,8.10
2017-12-17T10:09:16.138Z,9.77
2017-12-17T10:11:44.414Z,8.63
2017-12-17T10:14:12.698Z,8.48
2017-12-17T10:16:40.208Z,7.53
2017-12-17T10:19:07.714Z,9.88
2017-12-17T10:21:35.982Z,7.80
2017-12-17T10:24:03.518Z,8.70
2017-12-17T10:26:31.034Z,7.53
2017-12-17T10:28:58.563Z,9.35
2017-12-17T10:31:26.834Z,11.60
2017-12-17T10:33:55.153Z,6.10
2017-12-17T10:36:22.636Z,6.85
2017-12-17T10:38:50.143Z,8.07
2017-12-17T10:41:17.695Z,6.45
2017-12-17T10:43:45.962Z,7.53
2017-12-17T10:46:14.245Z,10.98
2017-12-17T10:48:41.786Z,7.68
2017-12-17T10:51:09.305Z,7.55
2017-12-17T10:53:36.812Z,10.85
2017-12-17T10:56:04.322Z,7.95
2017-12-17T10:58:31.858Z,7.50
2017-12-17T11:00:59.419Z,9.95
2017-12-17T11:03:26.922Z,7.62
2017-12-17T11:05:54.452Z,7.20
2017-12-17T11:08:21.942Z,8.63
2017-12-17T11:10:49.479Z,11.95
2017-12-17T11:13:17.003Z,6.40
2017-12-17T11:15:45.318Z,9.38
2017-12-17T11:18:12.826Z,8.75
2017-12-17T11:20:40.336Z,7.28
2017-12-17T11:23:07.859Z,11.48
2017-12-17T11:25:35.363Z,6.78
2017-12-17T11:28:02.879Z,6.35
2017-12-17T11:30:30.378Z,8.07
2017-12-17T11:32:57.886Z,6.65
2017-12-17T11:35:25.387Z,5.30
2017-12-17T11:37:53.667Z,7.75
2017-12-17T11:40:21.162Z,5.45
2017-12-17T11:42:48.679Z,7.15
2017-12-17T11:45:16.170Z,6.62
2017-12-17T11:47:43.738Z,5.80
2017-12-17T11:50:12.010Z,6.30
2017-12-17T11:52:39.522Z,6.85
2017-12-17T11:55:07.811Z,4.80
2017-12-17T11:57:35.306Z,4.62
2017-12-17T12:00:02.818Z,4.28
2017-12-17T12:02:30.330Z,4.82
2017-12-17T12:04:57.859Z,7.57
2017-12-17T12:07:25.391Z,4.72
2017-12-17T12:09:52.919Z,6.78
2017-12-17T12:12:20.436Z,5.32
2017-12-17T12:14:47.954Z,5.35
2017-12-17T12:17:15.518Z,6.43
2017-12-17T12:19:43.842Z,5.03
2017-12-17T12:22:11.342Z,5.47
2017-12-17T12:24:38.853Z,6.65
2017-12-17T12:27:06.362Z,8.18
2017-12-17T12:29:33.885Z,10.43
2017-12-17T12:32:01.395Z,12.93
2017-12-17T12:34:29.667Z,11.27
2017-12-17T12:36:57.951Z,10.68
2017-12-17T12:39:26.205Z,6.72
2017-12-17T12:41:53.769Z,6.30
2017-12-17T12:44:21.429Z,11.23
2017-12-17T12:46:48.946Z,6.45
2017-12-17T12:49:16.476Z,6.20
2017-12-17T12:51:44.772Z,7.53
2017-12-17T12:54:12.275Z,5.18
2017-12-17T12:56:39.787Z,5.80
2017-12-17T12:59:07.296Z,10.52
2017-12-17T13:01:34.806Z,6.37
2017-12-17T13:04:02.318Z,6.03
2017-12-17T13:06:29.831Z,4.97
2017-12-17T13:08:57.369Z,7.62
2017-12-17T13:11:24.862Z,8.10
2017-12-17T13:13:52.379Z,6.22
2017-12-17T13:16:19.878Z,5.70
2017-12-17T13:18:47.431Z,7.00
2017-12-17T13:21:15.626Z,8.13
2017-12-17T13:23:43.155Z,5.75
2017-12-17T13:26:10.688Z,6.93
2017-12-17T13:28:38.198Z,7.78
2017-12-17T13:31:05.693Z,7.22
2017-12-17T13:33:33.206Z,6.30
2017-12-17T13:36:00.749Z,5.18
2017-12-17T13:38:29.195Z,5.90
2017-12-17T13:40:57.472Z,7.20
2017-12-17T13:43:25.905Z,4.60
2017-12-17T13:45:53.471Z,8.40
2017-12-17T13:48:21.063Z,6.45
2017-12-17T13:50:48.614Z,6.30
2017-12-17T13:53:16.232Z,5.40
2017-12-17T13:55:43.726Z,4.90
2017-12-17T13:58:11.267Z,7.95
2017-12-17T14:00:38.775Z,7.75
2017-12-17T14:03:07.055Z,9.23
2017-12-17T14:05:35.347Z,5.43
2017-12-17T14:08:02.863Z,5.60
2017-12-17T14:10:30.407Z,6.07
2017-12-17T14:12:57.915Z,7.03
2017-12-17T14:15:25.492Z,6.30
2017-12-17T14:17:52.990Z,6.72
2017-12-17T14:20:20.552Z,5.65
2017-12-17T14:22:48.047Z,5.45
2017-12-17T14:25:15.587Z,8.10
2017-12-17T14:27:43.082Z,8.18
2017-12-17T14:30:10.607Z,8.77
2017-12-17T14:32:38.139Z,6.45
2017-12-17T14:35:05.684Z,6.03
2017-12-17T14:37:33.992Z,5.62
2017-12-17T14:40:01.572Z,11.52
2017-12-17T14:42:29.115Z,8.52
2017-12-17T14:44:56.643Z,5.65
2017-12-17T14:47:24.953Z,5.62
2017-12-17T14:49:52.454Z,7.80
2017-12-17T14:52:19.995Z,6.65
2017-12-17T14:54:47.552Z,5.90
2017-12-17T14:57:15.076Z,7.47
2017-12-17T14:59:42.588Z,6.78
2017-12-17T15:02:10.133Z,5.60
2017-12-17T15:04:37.634Z,7.55
2017-12-17T15:07:05.932Z,6.22
2017-12-17T15:09:33.484Z,6.50
2017-12-17T15:12:01.045Z,8.35
2017-12-17T15:14:28.555Z,8.02
2017-12-17T15:16:56.120Z,6.35
2017-12-17T15:19:23.676Z,5.93
2017-12-17T15:21:51.191Z,7.47
2017-12-17T15:24:18.688Z,8.18
2017-12-17T15:26:46.259Z,7.35
2017-12-17T15:29:13.826Z,6.47
2017-12-17T15:31:41.421Z,7.07
2017-12-17T15:34:08.987Z,8.20
2017-12-17T15:36:36.514Z,11.23
2017-12-17T15:39:04.069Z,6.37
2017-12-17T15:41:31.604Z,9.55
2017-12-17T15:43:59.181Z,5.80
2017-12-17T15:46:26.813Z,6.70
2017-12-17T15:48:54.327Z,5.32
2017-12-17T15:51:22.595Z,8.70
2017-12-17T15:53:50.964Z,7.35
2017-12-17T15:56:18.504Z,7.20
2017-12-17T15:58:46.034Z,7.65
2017-12-17T16:01:13.637Z,7.57
2017-12-17T16:03:41.123Z,7.72
2017-12-17T16:06:09.385Z,5.28
2017-12-17T16:08:36.962Z,7.30
2017-12-17T16:11:06.569Z,9.68
2017-12-17T16:13:34.903Z,11.90
2017-12-17T16:16:02.449Z,10.43
2017-12-17T16:18:29.961Z,7.85
2017-12-17T16:20:57.512Z,10.05
2017-12-17T16:23:25.076Z,6.60
2017-12-17T16:25:53.368Z,6.95
2017-12-17T16:28:21.710Z,6.43
2017-12-17T16:30:49.234Z,8.93
2017-12-17T16:33:16.815Z,13.82
2017-12-17T16:35:44.386Z,7.32
2017-12-17T16:38:11.965Z,10.25
2017-12-17T16:40:39.558Z,6.55
2017-12-17T16:43:07.889Z,8.50
2017-12-17T16:45:35.405Z,7.65
2017-12-17T16:48:03.078Z,7.20
2017-12-17T16:50:30.655Z,9.65
2017-12-17T16:52:58.208Z,7.95
2017-12-17T16:55:25.727Z,5.12
2017-12-17T16:57:54.065Z,8.63
2017-12-17T17:00:22.453Z,5.95
2017-12-17T17:02:50.005Z,12.52
2017-12-17T17:05:17.596Z,8.18
2017-12-17T17:07:45.154Z,7.40
2017-12-17T17:10:13.538Z,10.48
2017-12-17T17:12:41.118Z,4.75
2017-12-17T17:15:08.799Z,7.20
2017-12-17T17:17:36.360Z,5.80
2017-12-17T17:20:03.942Z,9.63
2017-12-17T17:22:31.508Z,7.93
2017-12-17T17:24:59.062Z,5.45
2017-12-17T17:27:26.623Z,6.72
2017-12-17T17:29:54.190Z,6.30
2017-12-17T17:32:22.526Z,7.90
2017-12-17T17:34:50.056Z,9.02
2017-12-17T17:37:18.377Z,6.43
2017-12-17T17:39:45.937Z,10.13
2017-12-17T17:42:13.503Z,7.97
2017-12-17T17:44:41.066Z,6.80
2017-12-17T17:47:08.619Z,6.78
2017-12-17T17:49:36.185Z,7.00
2017-12-17T17:52:03.738Z,11.60
2017-12-17T17:54:31.285Z,7.60
2017-12-17T17:56:58.803Z,7.62
2017-12-17T17:59:26.349Z,7.97
2017-12-17T18:01:53.920Z,7.43
2017-12-17T18:04:21.482Z,5.53
2017-12-17T18:06:49.097Z,7.62
2017-12-17T18:09:16.697Z,9.30
2017-12-17T18:11:44.271Z,8.88
2017-12-17T18:14:11.819Z,6.70
2017-12-17T18:16:39.394Z,7.07
2017-12-17T18:19:06.955Z,8.15
2017-12-17T18:21:34.562Z,5.75
2017-12-17T18:24:02.120Z,9.13
2017-12-17T18:26:30.213Z,7.03
2017-12-17T18:28:57.762Z,7.50
2017-12-17T18:31:25.337Z,5.43
2017-12-17T18:33:52.829Z,8.88
2017-12-17T18:36:23.110Z,6.78
2017-12-17T18:38:50.686Z,7.20
2017-12-17T18:41:18.230Z,5.30
2017-12-17T18:43:45.739Z,7.60
2017-12-17T18:46:14.076Z,10.13
2017-12-17T18:48:41.632Z,5.45
2017-12-17T18:51:09.196Z,6.47
2017-12-17T18:53:36.751Z,9.25
2017-12-17T18:56:04.342Z,6.85
2017-12-17T18:58:31.864Z,8.48
2017-12-17T19:00:59.435Z,5.57
2017-12-17T19:03:27.006Z,8.02
2017-12-17T19:05:54.569Z,6.90
2017-12-17T19:08:22.077Z,7.18
2017-12-17T19:10:50.399Z,7.50
2017-12-17T19:13:17.985Z,8.60
2017-12-17T19:15:45.560Z,7.12
2017-12-17T19:18:13.138Z,5.30
2017-12-17T19:20:41.470Z,9.02
2017-12-17T19:23:09.866Z,6.32
2017-12-17T19:25:37.432Z,8.63
2017-12-17T19:28:04.964Z,7.07
2017-12-17T19:30:32.549Z,5.60
2017-12-17T19:33:00.142Z,6.95
2017-12-17T19:35:27.709Z,6.95
2017-12-17T19:37:55.387Z,6.93
2017-12-17T19:40:22.942Z,9.45
2017-12-17T19:42:51.270Z,5.18
2017-12-17T19:45:18.814Z,9.85
2017-12-17T19:47:46.373Z,8.43
2017-12-17T19:50:14.004Z,7.72
2017-12-17T19:52:41.653Z,8.75
2017-12-17T19:55:09.210Z,10.75
2017-12-17T19:57:36.850Z,14.25
2017-12-17T20:00:05.230Z,14.82
2017-12-17T20:02:33.542Z,15.10
2017-12-17T20:05:01.072Z,15.65
2017-12-17T20:07:28.654Z,23.17
2017-12-17T20:09:56.237Z,20.33
2017-12-17T20:12:23.790Z,30.75
2017-12-17T20:14:51.399Z,24.60
2017-12-17T20:17:19.750Z,13.05
2017-12-17T20:19:48.083Z,38.47
2017-12-17T20:22:15.658Z,42.25
2017-12-17T20:24:43.261Z,43.10
2017-12-17T20:27:10.813Z,35.45
2017-12-17T20:29:38.418Z,32.00
2017-12-17T20:32:06.794Z,17.50
2017-12-17T20:34:35.149Z,12.57
2017-12-17T20:37:02.727Z,10.90
2017-12-17T20:39:31.060Z,12.30
2017-12-17T20:41:58.620Z,8.73
2017-12-17T20:44:26.142Z,14.50
2017-12-17T20:46:53.709Z,9.25
2017-12-17T20:49:21.302Z,11.40
2017-12-17T20:51:48.856Z,9.13
2017-12-17T20:54:16.426Z,9.18
2017-12-17T20:56:43.986Z,7.95
2017-12-17T20:59:11.541Z,6.87
2017-12-17T21:01:39.275Z,7.60
2017-12-17T21:04:06.879Z,10.88
2017-12-17T21:06:34.425Z,8.85
2017-12-17T21:09:02.746Z,7.22
2017-12-17T21:11:31.094Z,8.75
2017-12-17T21:13:58.669Z,8.13
2017-12-17T21:16:26.238Z,9.30
2017-12-17T21:18:53.824Z,12.18
2017-12-17T21:21:21.374Z,8.70
2017-12-17T21:23:49.685Z,7.72
2017-12-17T21:26:17.245Z,8.38
2017-12-17T21:28:44.800Z,7.90
2017-12-17T21:31:12.366Z,8.52
2017-12-17T21:33:39.922Z,10.45
2017-12-17T21:36:07.503Z,7.57
2017-12-17T21:38:35.066Z,14.55
2017-12-17T21:41:02.628Z,6.72
2017-12-17T21:43:30.170Z,6.50
2017-12-17T21:45:57.729Z,7.85
2017-12-17T21:48:25.293Z,6.10
2017-12-17T21:50:52.902Z,6.90
2017-12-17T21:53:20.446Z,5.43
2017-12-17T21:55:48.000Z,6.85
2017-12-17T21:58:15.582Z,6.25
2017-12-17T22:00:43.134Z,11.45
2017-12-17T22:03:10.690Z,5.40
2017-12-17T22:05:38.242Z,8.15
2017-12-17T22:08:05.809Z,6.03
2017-12-17T22:10:33.371Z,8.02
2017-12-17T22:13:00.931Z,6.25
2017-12-17T22:15:28.477Z,5.15
2017-12-17T22:17:56.057Z,9.23
2017-12-17T22:20:23.615Z,8.02
2017-12-17T22:22:51.202Z,7.47
2017-12-17T22:25:19.529Z,8.20
2017-12-17T22:27:47.147Z,7.97
2017-12-17T22:30:14.875Z,6.20
2017-12-17T22:32:42.441Z,5.47
2017-12-17T22:35:10.018Z,4.97
2017-12-17T22:37:38.353Z,5.12
2017-12-17T22:40:05.912Z,8.77
2017-12-17T22:42:33.498Z,6.30
2017-12-17T22:45:01.048Z,7.68
2017-12-17T22:47:28.609Z,7.47
2017-12-17T22:49:56.201Z,6.62
2017-12-17T22:52:24.535Z,9.32
2017-12-17T22:54:52.077Z,7.60
2017-12-17T22:57:19.638Z,5.20
2017-12-17T22:59:47.205Z,7.00
2017-12-17T23:02:14.739Z,6.55
2017-12-17T23:04:42.346Z,5.55
2017-12-17T23:07:09.855Z,7.57
2017-12-17T23:09:37.405Z,4.87
2017-12-17T23:12:05.700Z,5.78
2017-12-17T23:14:33.265Z,5.72
2017-12-17T23:17:00.810Z,6.72
2017-12-17T23:19:28.380Z,5.10
2017-12-17T23:21:55.926Z,4.65
2017-12-17T23:24:23.438Z,6.40
2017-12-17T23:26:50.989Z,6.37
2017-12-17T23:29:18.494Z,6.30
2017-12-17T23:31:46.760Z,7.43
2017-12-17T23:34:15.047Z,5.97
2017-12-17T23:36:43.356Z,8.35
2017-12-17T23:39:10.890Z,8.15
2017-12-17T23:41:38.402Z,5.90
2017-12-17T23:44:05.919Z,7.35
2017-12-17T23:46:33.425Z,5.82
2017-12-17T23:49:00.933Z,5.70
2017-12-17T23:51:28.427Z,4.70
2017-12-17T23:53:55.922Z,6.90
2017-12-17T23:56:23.433Z,5.00
2017-12-17T23:58:51.771Z,5.72
